sensor_id;sensor_type;location;lat;lon;timestamp;P1;durP1;ratioP1;P2;durP2;ratioP2
19903;SDS011;10114;50.970;4.962;2023-04-24T00:01:36;19.30;;;9.88;;
19903;SDS011;10114;50.970;4.962;2023-04-24T00:04:04;17.42;;;8.48;;
19903;SDS011;10114;50.970;4.962;2023-04-24T00:06:31;20.02;;;8.85;;
19903;SDS011;10114;50.970;4.962;2023-04-24T00:09:01;22.60;;;9.50;;
19903;SDS011;10114;50.970;4.962;2023-04-24T00:11:28;16.05;;;8.60;;
19903;SDS011;10114;50.970;4.962;2023-04-24T00:13:54;17.08;;;9.98;;
19903;SDS011;10114;50.970;4.962;2023-04-24T00:16:21;20.42;;;10.25;;
19903;SDS011;10114;50.970;4.962;2023-04-24T00:18:47;20.52;;;10.18;;
19903;SDS011;10114;50.970;4.962;2023-04-24T00:21:13;21.73;;;9.65;;
19903;SDS011;10114;50.970;4.962;2023-04-24T00:23:41;23.95;;;10.88;;
19903;SDS011;10114;50.970;4.962;2023-04-24T00:26:07;21.95;;;11.10;;
19903;SDS011;10114;50.970;4.962;2023-04-24T00:28:33;21.67;;;10.85;;
19903;SDS011;10114;50.970;4.962;2023-04-24T00:30:59;21.90;;;10.48;;
19903;SDS011;10114;50.970;4.962;2023-04-24T00:33:25;19.45;;;10.88;;
19903;SDS011;10114;50.970;4.962;2023-04-24T00:35:51;24.40;;;11.10;;
19903;SDS011;10114;50.970;4.962;2023-04-24T00:38:17;21.77;;;11.15;;
19903;SDS011;10114;50.970;4.962;2023-04-24T00:40:43;23.55;;;10.77;;
19903;SDS011;10114;50.970;4.962;2023-04-24T00:43:09;22.55;;;10.68;;
19903;SDS011;10114;50.970;4.962;2023-04-24T00:45:35;20.58;;;10.95;;
19903;SDS011;10114;50.970;4.962;2023-04-24T00:48:01;20.98;;;10.82;;
19903;SDS011;10114;50.970;4.962;2023-04-24T00:50:28;19.13;;;10.15;;
19903;SDS011;10114;50.970;4.962;2023-04-24T00:52:54;23.98;;;10.85;;
19903;SDS011;10114;50.970;4.962;2023-04-24T00:55:20;28.42;;;11.90;;
19903;SDS011;10114;50.970;4.962;2023-04-24T00:57:46;22.80;;;10.95;;
19903;SDS011;10114;50.970;4.962;2023-04-24T01:00:12;24.77;;;11.50;;
19903;SDS011;10114;50.970;4.962;2023-04-24T01:02:39;21.35;;;10.88;;
19903;SDS011;10114;50.970;4.962;2023-04-24T01:05:09;19.90;;;10.65;;
19903;SDS011;10114;50.970;4.962;2023-04-24T01:07:36;28.13;;;11.57;;
19903;SDS011;10114;50.970;4.962;2023-04-24T01:10:02;25.73;;;10.73;;
19903;SDS011;10114;50.970;4.962;2023-04-24T01:12:29;23.02;;;12.00;;
19903;SDS011;10114;50.970;4.962;2023-04-24T01:14:55;25.17;;;11.55;;
19903;SDS011;10114;50.970;4.962;2023-04-24T01:17:21;20.35;;;10.85;;
19903;SDS011;10114;50.970;4.962;2023-04-24T01:19:47;19.48;;;11.23;;
19903;SDS011;10114;50.970;4.962;2023-04-24T01:22:14;26.15;;;11.02;;
19903;SDS011;10114;50.970;4.962;2023-04-24T01:24:41;21.23;;;11.05;;
19903;SDS011;10114;50.970;4.962;2023-04-24T01:27:08;27.10;;;10.80;;
19903;SDS011;10114;50.970;4.962;2023-04-24T01:29:35;22.25;;;11.52;;
19903;SDS011;10114;50.970;4.962;2023-04-24T01:32:02;23.70;;;11.38;;
19903;SDS011;10114;50.970;4.962;2023-04-24T01:34:30;24.73;;;11.95;;
19903;SDS011;10114;50.970;4.962;2023-04-24T01:36:56;25.40;;;11.70;;
19903;SDS011;10114;50.970;4.962;2023-04-24T01:39:22;25.15;;;12.60;;
19903;SDS011;10114;50.970;4.962;2023-04-24T01:41:50;27.95;;;11.65;;
19903;SDS011;10114;50.970;4.962;2023-04-24T01:44:17;22.80;;;10.77;;
19903;SDS011;10114;50.970;4.962;2023-04-24T01:46:43;21.88;;;11.30;;
19903;SDS011;10114;50.970;4.962;2023-04-24T01:49:09;20.60;;;11.02;;
19903;SDS011;10114;50.970;4.962;2023-04-24T01:51:36;27.10;;;11.25;;
19903;SDS011;10114;50.970;4.962;2023-04-24T01:54:02;19.85;;;10.15;;
19903;SDS011;10114;50.970;4.962;2023-04-24T01:56:33;22.92;;;11.00;;
19903;SDS011;10114;50.970;4.962;2023-04-24T01:59:02;20.50;;;10.30;;
19903;SDS011;10114;50.970;4.962;2023-04-24T02:01:33;18.42;;;8.80;;
19903;SDS011;10114;50.970;4.962;2023-04-24T02:04:00;20.90;;;10.68;;
19903;SDS011;10114;50.970;4.962;2023-04-24T02:06:26;19.88;;;9.95;;
19903;SDS011;10114;50.970;4.962;2023-04-24T02:08:52;16.45;;;9.25;;
19903;SDS011;10114;50.970;4.962;2023-04-24T02:11:19;17.63;;;8.63;;
19903;SDS011;10114;50.970;4.962;2023-04-24T02:13:45;19.10;;;8.65;;
19903;SDS011;10114;50.970;4.962;2023-04-24T02:16:11;17.90;;;9.20;;
19903;SDS011;10114;50.970;4.962;2023-04-24T02:18:37;17.67;;;8.63;;
19903;SDS011;10114;50.970;4.962;2023-04-24T02:21:03;19.38;;;9.27;;
19903;SDS011;10114;50.970;4.962;2023-04-24T02:23:29;16.55;;;8.50;;
19903;SDS011;10114;50.970;4.962;2023-04-24T02:25:55;16.45;;;9.07;;
19903;SDS011;10114;50.970;4.962;2023-04-24T02:28:21;14.80;;;7.88;;
19903;SDS011;10114;50.970;4.962;2023-04-24T02:30:47;15.52;;;7.65;;
19903;SDS011;10114;50.970;4.962;2023-04-24T02:33:13;21.60;;;8.82;;
19903;SDS011;10114;50.970;4.962;2023-04-24T02:35:39;17.20;;;8.40;;
19903;SDS011;10114;50.970;4.962;2023-04-24T02:38:05;14.05;;;7.38;;
19903;SDS011;10114;50.970;4.962;2023-04-24T02:40:31;16.80;;;8.68;;
19903;SDS011;10114;50.970;4.962;2023-04-24T02:42:57;18.00;;;9.10;;
19903;SDS011;10114;50.970;4.962;2023-04-24T02:45:23;19.02;;;8.82;;
19903;SDS011;10114;50.970;4.962;2023-04-24T02:47:49;16.00;;;8.70;;
19903;SDS011;10114;50.970;4.962;2023-04-24T02:50:15;20.15;;;9.13;;
19903;SDS011;10114;50.970;4.962;2023-04-24T02:52:41;16.75;;;9.30;;
19903;SDS011;10114;50.970;4.962;2023-04-24T02:55:07;20.85;;;10.98;;
19903;SDS011;10114;50.970;4.962;2023-04-24T02:57:33;21.40;;;10.60;;
19903;SDS011;10114;50.970;4.962;2023-04-24T03:00:00;20.77;;;9.40;;
19903;SDS011;10114;50.970;4.962;2023-04-24T03:02:26;17.15;;;10.35;;
19903;SDS011;10114;50.970;4.962;2023-04-24T03:04:52;21.13;;;10.88;;
19903;SDS011;10114;50.970;4.962;2023-04-24T03:07:18;22.63;;;11.55;;
19903;SDS011;10114;50.970;4.962;2023-04-24T03:09:45;19.05;;;11.00;;
19903;SDS011;10114;50.970;4.962;2023-04-24T03:12:12;28.30;;;11.85;;
19903;SDS011;10114;50.970;4.962;2023-04-24T03:14:38;23.73;;;11.50;;
19903;SDS011;10114;50.970;4.962;2023-04-24T03:17:04;24.05;;;10.85;;
19903;SDS011;10114;50.970;4.962;2023-04-24T03:19:30;22.42;;;11.90;;
19903;SDS011;10114;50.970;4.962;2023-04-24T03:21:56;28.70;;;12.57;;
19903;SDS011;10114;50.970;4.962;2023-04-24T03:24:22;21.55;;;11.77;;
19903;SDS011;10114;50.970;4.962;2023-04-24T03:26:48;24.38;;;12.70;;
19903;SDS011;10114;50.970;4.962;2023-04-24T03:29:14;22.38;;;11.68;;
19903;SDS011;10114;50.970;4.962;2023-04-24T03:31:40;22.65;;;11.20;;
19903;SDS011;10114;50.970;4.962;2023-04-24T03:34:06;23.35;;;11.73;;
19903;SDS011;10114;50.970;4.962;2023-04-24T03:36:32;19.23;;;10.88;;
19903;SDS011;10114;50.970;4.962;2023-04-24T03:38:58;19.88;;;11.35;;
19903;SDS011;10114;50.970;4.962;2023-04-24T03:41:24;23.30;;;11.30;;
19903;SDS011;10114;50.970;4.962;2023-04-24T03:43:50;18.50;;;10.70;;
19903;SDS011;10114;50.970;4.962;2023-04-24T03:46:16;20.00;;;10.13;;
19903;SDS011;10114;50.970;4.962;2023-04-24T03:48:42;19.05;;;11.00;;
19903;SDS011;10114;50.970;4.962;2023-04-24T03:51:08;18.58;;;10.43;;
19903;SDS011;10114;50.970;4.962;2023-04-24T03:53:34;15.88;;;8.88;;
19903;SDS011;10114;50.970;4.962;2023-04-24T03:56:00;20.70;;;10.25;;
19903;SDS011;10114;50.970;4.962;2023-04-24T03:58:26;19.42;;;9.95;;
19903;SDS011;10114;50.970;4.962;2023-04-24T04:00:52;17.75;;;9.80;;
19903;SDS011;10114;50.970;4.962;2023-04-24T04:03:18;16.92;;;10.27;;
19903;SDS011;10114;50.970;4.962;2023-04-24T04:05:44;22.73;;;9.55;;
19903;SDS011;10114;50.970;4.962;2023-04-24T04:08:11;15.60;;;9.05;;
19903;SDS011;10114;50.970;4.962;2023-04-24T04:10:37;18.48;;;9.65;;
19903;SDS011;10114;50.970;4.962;2023-04-24T04:13:03;16.45;;;9.18;;
19903;SDS011;10114;50.970;4.962;2023-04-24T04:15:29;21.23;;;10.18;;
19903;SDS011;10114;50.970;4.962;2023-04-24T04:17:55;17.75;;;8.63;;
19903;SDS011;10114;50.970;4.962;2023-04-24T04:20:21;14.70;;;7.82;;
19903;SDS011;10114;50.970;4.962;2023-04-24T04:22:47;17.60;;;7.47;;
19903;SDS011;10114;50.970;4.962;2023-04-24T04:25:13;23.13;;;8.52;;
19903;SDS011;10114;50.970;4.962;2023-04-24T04:27:39;15.77;;;8.00;;
19903;SDS011;10114;50.970;4.962;2023-04-24T04:30:06;16.73;;;7.00;;
19903;SDS011;10114;50.970;4.962;2023-04-24T04:32:36;15.57;;;8.43;;
19903;SDS011;10114;50.970;4.962;2023-04-24T04:35:02;10.48;;;5.97;;
19903;SDS011;10114;50.970;4.962;2023-04-24T04:37:29;15.27;;;6.10;;
19903;SDS011;10114;50.970;4.962;2023-04-24T04:39:56;14.75;;;6.85;;
19903;SDS011;10114;50.970;4.962;2023-04-24T04:42:23;10.77;;;5.95;;
19903;SDS011;10114;50.970;4.962;2023-04-24T04:44:49;9.63;;;5.60;;
19903;SDS011;10114;50.970;4.962;2023-04-24T04:47:15;14.38;;;7.00;;
19903;SDS011;10114;50.970;4.962;2023-04-24T04:49:42;10.30;;;4.53;;
19903;SDS011;10114;50.970;4.962;2023-04-24T04:52:08;15.40;;;6.60;;
19903;SDS011;10114;50.970;4.962;2023-04-24T04:54:34;13.43;;;6.35;;
19903;SDS011;10114;50.970;4.962;2023-04-24T04:57:00;14.63;;;6.50;;
19903;SDS011;10114;50.970;4.962;2023-04-24T04:59:26;11.30;;;5.97;;
19903;SDS011;10114;50.970;4.962;2023-04-24T05:01:52;12.43;;;6.55;;
19903;SDS011;10114;50.970;4.962;2023-04-24T05:04:18;10.82;;;5.35;;
19903;SDS011;10114;50.970;4.962;2023-04-24T05:06:45;14.65;;;6.93;;
19903;SDS011;10114;50.970;4.962;2023-04-24T05:09:12;9.70;;;4.95;;
19903;SDS011;10114;50.970;4.962;2023-04-24T05:11:38;8.52;;;3.10;;
19903;SDS011;10114;50.970;4.962;2023-04-24T05:14:04;8.10;;;3.35;;
19903;SDS011;10114;50.970;4.962;2023-04-24T05:16:30;7.38;;;3.03;;
19903;SDS011;10114;50.970;4.962;2023-04-24T05:18:56;9.35;;;4.15;;
19903;SDS011;10114;50.970;4.962;2023-04-24T05:21:22;7.40;;;3.85;;
19903;SDS011;10114;50.970;4.962;2023-04-24T05:23:48;10.25;;;4.60;;
19903;SDS011;10114;50.970;4.962;2023-04-24T05:26:14;11.20;;;5.60;;
19903;SDS011;10114;50.970;4.962;2023-04-24T05:28:41;9.07;;;5.18;;
19903;SDS011;10114;50.970;4.962;2023-04-24T05:31:07;12.15;;;5.25;;
19903;SDS011;10114;50.970;4.962;2023-04-24T05:33:33;13.48;;;5.85;;
19903;SDS011;10114;50.970;4.962;2023-04-24T05:35:59;11.52;;;4.88;;
19903;SDS011;10114;50.970;4.962;2023-04-24T05:38:25;13.70;;;6.47;;
19903;SDS011;10114;50.970;4.962;2023-04-24T05:40:51;15.73;;;6.78;;
19903;SDS011;10114;50.970;4.962;2023-04-24T05:43:17;15.38;;;6.80;;
19903;SDS011;10114;50.970;4.962;2023-04-24T05:45:43;15.73;;;8.25;;
19903;SDS011;10114;50.970;4.962;2023-04-24T05:48:09;19.58;;;8.80;;
19903;SDS011;10114;50.970;4.962;2023-04-24T05:50:35;17.17;;;7.65;;
19903;SDS011;10114;50.970;4.962;2023-04-24T05:53:01;17.95;;;8.82;;
19903;SDS011;10114;50.970;4.962;2023-04-24T05:55:27;18.05;;;8.40;;
19903;SDS011;10114;50.970;4.962;2023-04-24T05:57:53;16.45;;;7.60;;
19903;SDS011;10114;50.970;4.962;2023-04-24T06:00:20;19.63;;;8.73;;
19903;SDS011;10114;50.970;4.962;2023-04-24T06:02:46;15.82;;;6.32;;
19903;SDS011;10114;50.970;4.962;2023-04-24T06:05:12;22.63;;;10.07;;
19903;SDS011;10114;50.970;4.962;2023-04-24T06:07:39;19.27;;;9.73;;
19903;SDS011;10114;50.970;4.962;2023-04-24T06:10:05;22.50;;;11.15;;
19903;SDS011;10114;50.970;4.962;2023-04-24T06:12:31;25.45;;;10.63;;
19903;SDS011;10114;50.970;4.962;2023-04-24T06:14:58;19.65;;;9.25;;
19903;SDS011;10114;50.970;4.962;2023-04-24T06:17:24;23.65;;;9.48;;
19903;SDS011;10114;50.970;4.962;2023-04-24T06:19:50;15.60;;;7.28;;
19903;SDS011;10114;50.970;4.962;2023-04-24T06:22:16;23.42;;;9.80;;
19903;SDS011;10114;50.970;4.962;2023-04-24T06:24:42;28.52;;;10.93;;
19903;SDS011;10114;50.970;4.962;2023-04-24T06:27:08;14.00;;;7.00;;
19903;SDS011;10114;50.970;4.962;2023-04-24T06:29:34;29.48;;;11.38;;
19903;SDS011;10114;50.970;4.962;2023-04-24T06:32:00;21.45;;;10.00;;
19903;SDS011;10114;50.970;4.962;2023-04-24T06:34:26;30.17;;;11.95;;
19903;SDS011;10114;50.970;4.962;2023-04-24T06:36:52;25.15;;;12.35;;
19903;SDS011;10114;50.970;4.962;2023-04-24T06:39:18;23.35;;;11.80;;
19903;SDS011;10114;50.970;4.962;2023-04-24T06:41:44;26.65;;;11.02;;
19903;SDS011;10114;50.970;4.962;2023-04-24T06:44:10;23.55;;;11.65;;
19903;SDS011;10114;50.970;4.962;2023-04-24T06:46:36;30.55;;;12.65;;
19903;SDS011;10114;50.970;4.962;2023-04-24T06:49:02;27.20;;;12.20;;
19903;SDS011;10114;50.970;4.962;2023-04-24T06:51:28;25.67;;;11.20;;
19903;SDS011;10114;50.970;4.962;2023-04-24T06:53:54;28.85;;;11.48;;
19903;SDS011;10114;50.970;4.962;2023-04-24T06:56:23;22.73;;;11.68;;
19903;SDS011;10114;50.970;4.962;2023-04-24T06:58:50;24.45;;;11.65;;
19903;SDS011;10114;50.970;4.962;2023-04-24T07:01:16;23.52;;;11.65;;
19903;SDS011;10114;50.970;4.962;2023-04-24T07:03:42;25.55;;;12.18;;
19903;SDS011;10114;50.970;4.962;2023-04-24T07:06:09;26.50;;;13.00;;
19903;SDS011;10114;50.970;4.962;2023-04-24T07:08:38;27.17;;;13.57;;
19903;SDS011;10114;50.970;4.962;2023-04-24T07:11:04;22.20;;;11.13;;
19903;SDS011;10114;50.970;4.962;2023-04-24T07:13:30;27.08;;;12.25;;
19903;SDS011;10114;50.970;4.962;2023-04-24T07:15:56;35.15;;;14.10;;
19903;SDS011;10114;50.970;4.962;2023-04-24T07:18:22;26.42;;;13.98;;
19903;SDS011;10114;50.970;4.962;2023-04-24T07:20:48;25.38;;;13.00;;
19903;SDS011;10114;50.970;4.962;2023-04-24T07:23:17;31.85;;;13.85;;
19903;SDS011;10114;50.970;4.962;2023-04-24T07:25:43;29.58;;;13.13;;
19903;SDS011;10114;50.970;4.962;2023-04-24T07:28:09;28.30;;;14.00;;
19903;SDS011;10114;50.970;4.962;2023-04-24T07:30:36;26.45;;;12.85;;
19903;SDS011;10114;50.970;4.962;2023-04-24T07:33:02;34.38;;;14.63;;
19903;SDS011;10114;50.970;4.962;2023-04-24T07:35:28;32.55;;;14.15;;
19903;SDS011;10114;50.970;4.962;2023-04-24T07:37:54;33.05;;;12.90;;
19903;SDS011;10114;50.970;4.962;2023-04-24T07:40:20;26.50;;;12.20;;
19903;SDS011;10114;50.970;4.962;2023-04-24T07:42:47;34.20;;;13.57;;
19903;SDS011;10114;50.970;4.962;2023-04-24T07:45:15;33.83;;;13.75;;
19903;SDS011;10114;50.970;4.962;2023-04-24T07:47:42;24.73;;;12.02;;
19903;SDS011;10114;50.970;4.962;2023-04-24T07:50:11;26.55;;;12.20;;
19903;SDS011;10114;50.970;4.962;2023-04-24T07:52:38;26.15;;;12.45;;
19903;SDS011;10114;50.970;4.962;2023-04-24T07:55:04;28.35;;;12.27;;
19903;SDS011;10114;50.970;4.962;2023-04-24T07:57:30;21.45;;;8.50;;
19903;SDS011;10114;50.970;4.962;2023-04-24T07:59:56;24.38;;;9.82;;
19903;SDS011;10114;50.970;4.962;2023-04-24T08:02:22;11.50;;;6.22;;
19903;SDS011;10114;50.970;4.962;2023-04-24T08:04:52;25.98;;;9.70;;
19903;SDS011;10114;50.970;4.962;2023-04-24T08:07:21;22.02;;;8.00;;
19903;SDS011;10114;50.970;4.962;2023-04-24T08:09:47;24.65;;;7.80;;
19903;SDS011;10114;50.970;4.962;2023-04-24T08:12:13;24.83;;;7.82;;
19903;SDS011;10114;50.970;4.962;2023-04-24T08:14:40;13.73;;;5.72;;
19903;SDS011;10114;50.970;4.962;2023-04-24T08:17:06;19.80;;;7.80;;
19903;SDS011;10114;50.970;4.962;2023-04-24T08:19:32;21.48;;;6.70;;
19903;SDS011;10114;50.970;4.962;2023-04-24T08:21:58;21.27;;;7.05;;
19903;SDS011;10114;50.970;4.962;2023-04-24T08:24:24;13.73;;;5.00;;
19903;SDS011;10114;50.970;4.962;2023-04-24T08:26:50;13.40;;;5.88;;
19903;SDS011;10114;50.970;4.962;2023-04-24T08:29:16;15.50;;;5.53;;
19903;SDS011;10114;50.970;4.962;2023-04-24T08:31:42;11.60;;;5.13;;
19903;SDS011;10114;50.970;4.962;2023-04-24T08:34:09;14.93;;;5.40;;
19903;SDS011;10114;50.970;4.962;2023-04-24T08:36:35;15.50;;;5.65;;
19903;SDS011;10114;50.970;4.962;2023-04-24T08:39:02;14.80;;;5.43;;
19903;SDS011;10114;50.970;4.962;2023-04-24T08:41:28;18.60;;;5.60;;
19903;SDS011;10114;50.970;4.962;2023-04-24T08:43:54;19.88;;;5.85;;
19903;SDS011;10114;50.970;4.962;2023-04-24T08:46:23;11.10;;;3.90;;
19903;SDS011;10114;50.970;4.962;2023-04-24T08:48:50;12.52;;;4.85;;
19903;SDS011;10114;50.970;4.962;2023-04-24T08:51:16;15.23;;;5.50;;
19903;SDS011;10114;50.970;4.962;2023-04-24T08:53:42;17.02;;;5.82;;
19903;SDS011;10114;50.970;4.962;2023-04-24T08:56:08;21.75;;;5.78;;
19903;SDS011;10114;50.970;4.962;2023-04-24T08:58:35;22.50;;;6.43;;
19903;SDS011;10114;50.970;4.962;2023-04-24T09:01:01;18.20;;;6.15;;
19903;SDS011;10114;50.970;4.962;2023-04-24T09:03:27;13.40;;;4.32;;
19903;SDS011;10114;50.970;4.962;2023-04-24T09:05:54;16.30;;;5.95;;
19903;SDS011;10114;50.970;4.962;2023-04-24T09:08:20;9.60;;;4.40;;
19903;SDS011;10114;50.970;4.962;2023-04-24T09:10:49;20.80;;;6.65;;
19903;SDS011;10114;50.970;4.962;2023-04-24T09:13:15;22.55;;;6.78;;
19903;SDS011;10114;50.970;4.962;2023-04-24T09:15:42;21.25;;;5.25;;
19903;SDS011;10114;50.970;4.962;2023-04-24T09:18:08;11.68;;;4.47;;
19903;SDS011;10114;50.970;4.962;2023-04-24T09:20:34;16.00;;;5.05;;
19903;SDS011;10114;50.970;4.962;2023-04-24T09:23:02;15.85;;;6.10;;
19903;SDS011;10114;50.970;4.962;2023-04-24T09:25:32;19.98;;;6.57;;
19903;SDS011;10114;50.970;4.962;2023-04-24T09:28:02;17.98;;;7.03;;
19903;SDS011;10114;50.970;4.962;2023-04-24T09:30:29;21.48;;;7.45;;
19903;SDS011;10114;50.970;4.962;2023-04-24T09:33:12;18.30;;;6.20;;
19903;SDS011;10114;50.970;4.962;2023-04-24T09:35:40;21.63;;;5.68;;
19903;SDS011;10114;50.970;4.962;2023-04-24T09:38:06;12.27;;;5.68;;
19903;SDS011;10114;50.970;4.962;2023-04-24T09:40:34;12.65;;;5.03;;
19903;SDS011;10114;50.970;4.962;2023-04-24T09:43:00;18.50;;;5.80;;
19903;SDS011;10114;50.970;4.962;2023-04-24T09:45:28;13.00;;;5.03;;
19903;SDS011;10114;50.970;4.962;2023-04-24T09:47:54;18.85;;;4.30;;
19903;SDS011;10114;50.970;4.962;2023-04-24T09:50:21;11.93;;;4.50;;
19903;SDS011;10114;50.970;4.962;2023-04-24T09:52:55;11.88;;;3.60;;
19903;SDS011;10114;50.970;4.962;2023-04-24T09:55:21;16.50;;;5.40;;
19903;SDS011;10114;50.970;4.962;2023-04-24T09:57:48;13.68;;;5.13;;
19903;SDS011;10114;50.970;4.962;2023-04-24T10:00:19;21.52;;;5.10;;
19903;SDS011;10114;50.970;4.962;2023-04-24T10:02:51;15.00;;;4.75;;
19903;SDS011;10114;50.970;4.962;2023-04-24T10:05:17;17.30;;;4.93;;
19903;SDS011;10114;50.970;4.962;2023-04-24T10:07:43;18.45;;;5.63;;
19903;SDS011;10114;50.970;4.962;2023-04-24T10:10:09;16.10;;;4.80;;
19903;SDS011;10114;50.970;4.962;2023-04-24T10:12:36;15.25;;;5.20;;
19903;SDS011;10114;50.970;4.962;2023-04-24T10:15:02;17.48;;;5.60;;
19903;SDS011;10114;50.970;4.962;2023-04-24T10:17:28;14.43;;;4.80;;
19903;SDS011;10114;50.970;4.962;2023-04-24T10:19:55;14.80;;;5.35;;
19903;SDS011;10114;50.970;4.962;2023-04-24T10:22:21;15.73;;;4.28;;
19903;SDS011;10114;50.970;4.962;2023-04-24T10:24:47;13.02;;;4.80;;
19903;SDS011;10114;50.970;4.962;2023-04-24T10:27:14;12.73;;;4.40;;
19903;SDS011;10114;50.970;4.962;2023-04-24T10:29:41;12.50;;;3.95;;
19903;SDS011;10114;50.970;4.962;2023-04-24T10:32:08;11.77;;;3.55;;
19903;SDS011;10114;50.970;4.962;2023-04-24T10:34:35;10.70;;;3.97;;
19903;SDS011;10114;50.970;4.962;2023-04-24T10:37:01;9.48;;;3.22;;
19903;SDS011;10114;50.970;4.962;2023-04-24T10:39:28;6.05;;;2.60;;
19903;SDS011;10114;50.970;4.962;2023-04-24T10:41:55;11.10;;;4.07;;
19903;SDS011;10114;50.970;4.962;2023-04-24T10:44:22;10.20;;;3.30;;
19903;SDS011;10114;50.970;4.962;2023-04-24T10:46:53;11.75;;;3.72;;
19903;SDS011;10114;50.970;4.962;2023-04-24T10:49:29;11.13;;;3.35;;
19903;SDS011;10114;50.970;4.962;2023-04-24T10:51:59;12.20;;;3.38;;
19903;SDS011;10114;50.970;4.962;2023-04-24T10:54:29;9.10;;;3.17;;
19903;SDS011;10114;50.970;4.962;2023-04-24T11:03:00;5.78;;;1.70;;
19903;SDS011;10114;50.970;4.962;2023-04-24T11:08:14;11.43;;;3.58;;
19903;SDS011;10114;50.970;4.962;2023-04-24T11:10:45;10.18;;;3.22;;
19903;SDS011;10114;50.970;4.962;2023-04-24T11:13:14;12.63;;;3.22;;
19903;SDS011;10114;50.970;4.962;2023-04-24T11:15:41;9.52;;;2.95;;
19903;SDS011;10114;50.970;4.962;2023-04-24T11:18:12;8.40;;;3.15;;
19903;SDS011;10114;50.970;4.962;2023-04-24T11:20:41;5.80;;;2.72;;
19903;SDS011;10114;50.970;4.962;2023-04-24T11:23:07;10.25;;;3.50;;
19903;SDS011;10114;50.970;4.962;2023-04-24T11:25:34;10.57;;;2.67;;
19903;SDS011;10114;50.970;4.962;2023-04-24T11:28:04;10.57;;;3.55;;
19903;SDS011;10114;50.970;4.962;2023-04-24T11:30:31;10.52;;;3.53;;
19903;SDS011;10114;50.970;4.962;2023-04-24T11:33:05;6.85;;;3.35;;
19903;SDS011;10114;50.970;4.962;2023-04-24T11:35:34;12.93;;;3.92;;
19903;SDS011;10114;50.970;4.962;2023-04-24T11:38:02;11.68;;;3.30;;
19903;SDS011;10114;50.970;4.962;2023-04-24T11:40:29;6.63;;;2.40;;
19903;SDS011;10114;50.970;4.962;2023-04-24T11:42:55;7.22;;;2.25;;
19903;SDS011;10114;50.970;4.962;2023-04-24T11:47:47;5.72;;;2.38;;
19903;SDS011;10114;50.970;4.962;2023-04-24T11:50:17;9.05;;;2.70;;
19903;SDS011;10114;50.970;4.962;2023-04-24T11:52:44;5.90;;;2.65;;
19903;SDS011;10114;50.970;4.962;2023-04-24T11:57:41;6.22;;;2.38;;
19903;SDS011;10114;50.970;4.962;2023-04-24T12:00:14;8.10;;;2.38;;
19903;SDS011;10114;50.970;4.962;2023-04-24T12:02:41;9.32;;;2.63;;
19903;SDS011;10114;50.970;4.962;2023-04-24T12:05:07;7.18;;;2.78;;
19903;SDS011;10114;50.970;4.962;2023-04-24T12:07:39;6.88;;;2.80;;
19903;SDS011;10114;50.970;4.962;2023-04-24T12:10:07;7.68;;;2.35;;
19903;SDS011;10114;50.970;4.962;2023-04-24T12:12:34;6.15;;;2.20;;
19903;SDS011;10114;50.970;4.962;2023-04-24T12:15:00;5.07;;;1.27;;
19903;SDS011;10114;50.970;4.962;2023-04-24T12:17:30;11.48;;;2.75;;
19903;SDS011;10114;50.970;4.962;2023-04-24T12:19:57;9.65;;;3.40;;
19903;SDS011;10114;50.970;4.962;2023-04-24T12:22:23;14.27;;;3.50;;
19903;SDS011;10114;50.970;4.962;2023-04-24T12:25:00;10.55;;;3.05;;
19903;SDS011;10114;50.970;4.962;2023-04-24T12:29:55;8.45;;;2.85;;
19903;SDS011;10114;50.970;4.962;2023-04-24T12:32:21;12.95;;;3.50;;
19903;SDS011;10114;50.970;4.962;2023-04-24T12:34:49;7.65;;;2.78;;
19903;SDS011;10114;50.970;4.962;2023-04-24T12:37:16;10.57;;;3.58;;
19903;SDS011;10114;50.970;4.962;2023-04-24T12:42:28;8.57;;;3.05;;
19903;SDS011;10114;50.970;4.962;2023-04-24T12:44:58;8.40;;;2.70;;
19903;SDS011;10114;50.970;4.962;2023-04-24T12:47:25;9.00;;;3.50;;
19903;SDS011;10114;50.970;4.962;2023-04-24T12:49:51;7.88;;;3.05;;
19903;SDS011;10114;50.970;4.962;2023-04-24T12:52:18;9.15;;;2.67;;
19903;SDS011;10114;50.970;4.962;2023-04-24T12:54:48;8.23;;;3.28;;
19903;SDS011;10114;50.970;4.962;2023-04-24T12:57:14;6.60;;;3.25;;
19903;SDS011;10114;50.970;4.962;2023-04-24T12:59:40;8.60;;;3.28;;
19903;SDS011;10114;50.970;4.962;2023-04-24T13:02:07;13.57;;;4.00;;
19903;SDS011;10114;50.970;4.962;2023-04-24T13:04:34;10.45;;;3.45;;
19903;SDS011;10114;50.970;4.962;2023-04-24T13:07:00;9.95;;;3.58;;
19903;SDS011;10114;50.970;4.962;2023-04-24T13:09:26;6.72;;;2.88;;
19903;SDS011;10114;50.970;4.962;2023-04-24T13:11:52;8.10;;;2.25;;
19903;SDS011;10114;50.970;4.962;2023-04-24T13:14:19;13.75;;;4.22;;
19903;SDS011;10114;50.970;4.962;2023-04-24T13:16:45;11.32;;;3.38;;
19903;SDS011;10114;50.970;4.962;2023-04-24T13:19:11;8.40;;;2.42;;
19903;SDS011;10114;50.970;4.962;2023-04-24T13:21:37;10.25;;;3.75;;
19903;SDS011;10114;50.970;4.962;2023-04-24T13:24:03;10.18;;;3.40;;
19903;SDS011;10114;50.970;4.962;2023-04-24T13:26:30;7.72;;;3.35;;
19903;SDS011;10114;50.970;4.962;2023-04-24T13:28:56;11.18;;;3.53;;
19903;SDS011;10114;50.970;4.962;2023-04-24T13:31:22;8.00;;;3.10;;
19903;SDS011;10114;50.970;4.962;2023-04-24T13:33:48;8.95;;;2.50;;
19903;SDS011;10114;50.970;4.962;2023-04-24T13:36:14;9.20;;;3.47;;
19903;SDS011;10114;50.970;4.962;2023-04-24T13:38:42;8.63;;;2.63;;
19903;SDS011;10114;50.970;4.962;2023-04-24T13:41:08;7.72;;;3.15;;
19903;SDS011;10114;50.970;4.962;2023-04-24T13:43:34;7.30;;;2.75;;
19903;SDS011;10114;50.970;4.962;2023-04-24T13:46:00;6.15;;;1.98;;
19903;SDS011;10114;50.970;4.962;2023-04-24T13:48:28;5.40;;;2.10;;
19903;SDS011;10114;50.970;4.962;2023-04-24T13:50:54;7.60;;;2.30;;
19903;SDS011;10114;50.970;4.962;2023-04-24T13:53:20;9.20;;;2.53;;
19903;SDS011;10114;50.970;4.962;2023-04-24T13:55:46;6.05;;;2.78;;
19903;SDS011;10114;50.970;4.962;2023-04-24T13:58:12;8.40;;;2.83;;
19903;SDS011;10114;50.970;4.962;2023-04-24T14:00:40;8.90;;;3.35;;
19903;SDS011;10114;50.970;4.962;2023-04-24T14:03:06;10.88;;;3.33;;
19903;SDS011;10114;50.970;4.962;2023-04-24T14:05:32;11.13;;;3.58;;
19903;SDS011;10114;50.970;4.962;2023-04-24T14:07:58;6.97;;;2.95;;
19903;SDS011;10114;50.970;4.962;2023-04-24T14:10:24;7.00;;;2.97;;
19903;SDS011;10114;50.970;4.962;2023-04-24T14:12:52;8.13;;;3.60;;
19903;SDS011;10114;50.970;4.962;2023-04-24T14:15:18;5.65;;;1.88;;
19903;SDS011;10114;50.970;4.962;2023-04-24T14:17:44;6.20;;;2.42;;
19903;SDS011;10114;50.970;4.962;2023-04-24T14:20:12;6.43;;;3.05;;
19903;SDS011;10114;50.970;4.962;2023-04-24T14:22:38;7.57;;;2.90;;
19903;SDS011;10114;50.970;4.962;2023-04-24T14:25:04;8.13;;;2.60;;
19903;SDS011;10114;50.970;4.962;2023-04-24T14:27:31;5.65;;;2.30;;
19903;SDS011;10114;50.970;4.962;2023-04-24T14:29:59;7.75;;;2.33;;
19903;SDS011;10114;50.970;4.962;2023-04-24T14:32:25;6.00;;;2.60;;
19903;SDS011;10114;50.970;4.962;2023-04-24T14:34:51;4.80;;;1.90;;
19903;SDS011;10114;50.970;4.962;2023-04-24T14:37:17;8.95;;;2.70;;
19903;SDS011;10114;50.970;4.962;2023-04-24T14:39:44;8.02;;;2.22;;
19903;SDS011;10114;50.970;4.962;2023-04-24T14:42:10;5.70;;;2.40;;
19903;SDS011;10114;50.970;4.962;2023-04-24T14:44:36;5.20;;;2.30;;
19903;SDS011;10114;50.970;4.962;2023-04-24T14:47:02;6.75;;;2.35;;
19903;SDS011;10114;50.970;4.962;2023-04-24T14:49:28;5.32;;;2.25;;